Orbital elements of COSMOS 2251 DEB
| Launched | 15 June 1993 |
| Flight ended | – |
| Launch site | Plesetsk Missile and Space Complex, Russia |
| Owner | Commonwealth of Independent States (former USSR) |
| NORAD ID | 34908 |
| Date fetched |
Epoch osculation |
Inc. [°] |
Ecc. | RA asc node [hr] |
Arg Peri. [°] |
Mean anom [°] |
Mean motion [rev/day] |
Abs. mag |
| Date fetched |
Epoch osculation |
Inc. [°] |
Ecc. | RA asc node [hr] |
Arg Peri. [°] |
Mean anom [°] |
Mean motion [rev/day] |
Abs. mag |
| 2026 May 07 17:58 | 2026 May 03 10:16:25 | 74.0552 | 0.00390 | 8.2114 | 108.4960 | 44.7182 | 14.37928 | – |
| 2026 May 06 17:57 | 2026 May 03 10:16:25 | 74.0552 | 0.00390 | 8.2114 | 108.4960 | 44.7182 | 14.37928 | – |
| 2026 May 05 17:57 | 2026 May 03 10:16:25 | 74.0552 | 0.00390 | 8.2114 | 108.4960 | 44.7182 | 14.37928 | – |
| 2026 May 04 17:57 | 2026 Apr 30 10:21:21 | 74.0553 | 0.00390 | 8.5788 | 114.9236 | 44.7182 | 14.37928 | – |
| 2026 May 03 17:57 | 2026 Apr 30 10:21:21 | 74.0553 | 0.00390 | 8.5788 | 114.9236 | 44.7182 | 14.37928 | – |
| 2026 May 02 17:57 | 2026 Apr 30 10:21:21 | 74.0553 | 0.00390 | 8.5788 | 114.9236 | 44.7182 | 14.37928 | – |
| 2026 May 01 17:56 | 2026 Apr 30 10:21:21 | 74.0553 | 0.00390 | 8.5788 | 114.9236 | 44.7182 | 14.37928 | – |
| 2026 Apr 30 17:56 | 2026 Apr 30 10:21:21 | 74.0553 | 0.00390 | 8.5788 | 114.9236 | 44.7182 | 14.37928 | – |
| 2026 Apr 29 17:57 | 2026 Apr 24 12:33:46 | 74.0556 | 0.00392 | 9.3032 | 127.5255 | 44.7182 | 14.37928 | – |
| 2026 Apr 28 17:56 | 2026 Apr 24 12:33:46 | 74.0556 | 0.00392 | 9.3032 | 127.5255 | 44.7182 | 14.37928 | – |
| 2026 Apr 27 17:58 | 2026 Apr 24 12:33:46 | 74.0556 | 0.00392 | 9.3032 | 127.5255 | 44.7182 | 14.37928 | – |
| 2026 Apr 26 17:58 | 2026 Apr 24 12:33:46 | 74.0556 | 0.00392 | 9.3032 | 127.5255 | 44.7182 | 14.37928 | – |
| 2026 Apr 25 17:58 | 2026 Apr 24 12:33:46 | 74.0556 | 0.00392 | 9.3032 | 127.5255 | 44.7182 | 14.37928 | – |
| 2026 Apr 24 17:59 | 2026 Apr 24 12:33:46 | 74.0556 | 0.00392 | 9.3032 | 127.5255 | 44.7182 | 14.37928 | – |
| 2026 Apr 23 17:57 | 2026 Apr 18 21:24:11 | 74.0564 | 0.00394 | 9.9937 | 139.4336 | 44.7182 | 14.37928 | – |
| 2026 Apr 22 17:57 | 2026 Apr 18 21:24:11 | 74.0564 | 0.00394 | 9.9937 | 139.4336 | 44.7182 | 14.37928 | – |
| 2026 Apr 21 17:57 | 2026 Apr 18 21:24:11 | 74.0564 | 0.00394 | 9.9937 | 139.4336 | 44.7182 | 14.37928 | – |
| 2026 Apr 20 17:57 | 2026 Apr 18 21:24:11 | 74.0564 | 0.00394 | 9.9937 | 139.4336 | 44.7182 | 14.37928 | – |
| 2026 Apr 19 17:58 | 2026 Apr 18 21:24:11 | 74.0564 | 0.00394 | 9.9937 | 139.4336 | 44.7182 | 14.37928 | – |
| 2026 Apr 18 17:56 | 2026 Apr 12 21:48:07 | 74.0571 | 0.00398 | 10.7273 | 151.9374 | 44.7182 | 14.37928 | – |
| 2026 Apr 16 17:57 | 2026 Apr 12 21:48:07 | 74.0571 | 0.00398 | 10.7273 | 151.9374 | 44.7182 | 14.37928 | – |
| 2026 Apr 14 17:57 | 2026 Apr 12 21:48:07 | 74.0571 | 0.00398 | 10.7273 | 151.9374 | 44.7182 | 14.37928 | – |
| 2026 Apr 13 17:57 | 2026 Apr 12 21:48:07 | 74.0571 | 0.00398 | 10.7273 | 151.9374 | 44.7182 | 14.37928 | – |
| 2026 Apr 12 17:57 | 2026 Apr 07 23:15:10 | 74.0579 | 0.00400 | 11.3328 | 162.2957 | 44.7182 | 14.37928 | – |
| 2026 Apr 11 17:57 | 2026 Apr 07 23:15:10 | 74.0579 | 0.00400 | 11.3328 | 162.2957 | 44.7182 | 14.37928 | – |
| 2026 Apr 10 17:58 | 2026 Apr 07 23:15:10 | 74.0579 | 0.00400 | 11.3328 | 162.2957 | 44.7182 | 14.37928 | – |